Time;durP1;ratioP1;P1;durP2;ratioP2;P2;SDS_P1;SDS_P2;PMS_P1;PMS_P2;Temp;Humidity;BMP_temperature;BMP_pressure;BME280_temperature;BME280_humidity;BME280_pressure;Samples;Min_cycle;Max_cycle;Signal;HPM_P1;HPM_P2
2023/10/01 00:00:20;;;;;;;1999.90;999.90;;;;;;;11.99;100.00;95830.63;5065704;28;20176;-55
2023/10/01 00:02:48;;;;;;;1999.90;999.90;;;;;;;12.00;100.00;95828.66;5065021;28;20172;-53
2023/10/01 00:05:13;;;;;;;1999.90;999.90;;;;;;;11.94;100.00;95839.25;5064755;28;20534;-55
2023/10/01 00:07:39;;;;;;;1999.90;999.90;;;;;;;11.94;100.00;95841.22;5065448;28;20188;-53
2023/10/01 00:10:10;;;;;;;1999.90;999.90;;;;;;;11.94;100.00;95841.22;5065382;28;20169;-55
2023/10/01 00:12:46;;;;;;;1999.90;999.90;;;;;;;11.95;100.00;95832.59;5065680;28;20189;-53
2023/10/01 00:15:16;;;;;;;1999.90;999.90;;;;;;;11.96;100.00;95836.13;5064562;28;20257;-56
2023/10/01 00:17:44;;;;;;;1999.90;999.90;;;;;;;11.95;100.00;95820.88;5064822;28;20257;-54
2023/10/01 00:20:20;;;;;;;1999.90;999.90;;;;;;;11.92;100.00;95816.22;5064713;28;20165;-54
2023/10/01 00:22:46;;;;;;;1999.90;999.90;;;;;;;11.92;100.00;95816.22;5065183;28;20451;-53
2023/10/01 00:25:12;;;;;;;1999.90;999.90;;;;;;;11.91;100.00;95822.88;5064569;28;20228;-56
2023/10/01 00:27:38;;;;;;;1999.90;999.90;;;;;;;11.88;100.00;95826.41;5064586;28;20176;-54
2023/10/01 00:30:08;;;;;;;1999.90;999.90;;;;;;;11.84;100.00;95825.66;5064620;28;20176;-52
2023/10/01 00:32:34;;;;;;;1999.90;999.90;;;;;;;11.86;100.00;95828.75;5064392;28;20249;-52
2023/10/01 00:34:59;;;;;;;1999.90;999.90;;;;;;;11.82;100.00;95828.00;5064449;28;20178;-54
2023/10/01 00:37:24;;;;;;;1999.90;999.90;;;;;;;11.79;100.00;95831.53;5064464;28;20173;-54
2023/10/01 00:39:55;;;;;;;1999.90;999.90;;;;;;;11.73;100.00;95835.88;5064976;28;20168;-52
2023/10/01 00:42:21;;;;;;;1999.90;999.90;;;;;;;11.71;100.00;95835.47;5064342;28;20169;-54
2023/10/01 00:44:47;;;;;;;1999.90;999.90;;;;;;;11.70;100.00;95833.94;5064244;28;20201;-51
2023/10/01 00:47:13;;;;;;;1999.90;999.90;;;;;;;11.69;100.00;95829.66;5063851;28;20216;-53
2023/10/01 00:49:46;;;;;;;1999.90;999.90;;;;;;;11.66;100.00;95824.97;5064294;28;20164;-55
2023/10/01 00:52:12;;;;;;;1999.90;999.90;;;;;;;11.63;100.00;95828.50;5064704;28;20169;-55
2023/10/01 00:54:37;;;;;;;1999.90;999.90;;;;;;;11.60;100.00;95819.09;5064397;28;20173;-54
2023/10/01 00:57:03;;;;;;;1999.90;999.90;;;;;;;11.59;100.00;95809.34;5064010;28;20189;-53
2023/10/01 00:59:32;;;;;;;1999.90;999.90;;;;;;;11.58;100.00;95801.53;5064184;28;20203;-53
2023/10/01 01:01:58;;;;;;;1999.90;999.90;;;;;;;11.54;100.00;95801.53;5064413;28;20166;-54
2023/10/01 01:04:24;;;;;;;1999.90;999.90;;;;;;;11.50;100.00;95791.78;5064233;28;20197;-56
2023/10/01 01:06:51;;;;;;;1999.90;999.90;;;;;;;11.49;100.00;95776.56;5064458;28;20173;-55
2023/10/01 01:09:19;;;;;;;1999.90;999.90;;;;;;;11.49;100.00;95777.34;5064363;28;20442;-54
2023/10/01 01:11:50;;;;;;;1999.90;999.90;;;;;;;11.49;100.00;95771.88;5064684;28;20176;-55
2023/10/01 01:14:16;;;;;;;1999.90;999.90;;;;;;;11.47;100.00;95768.00;5064481;28;20202;-52
2023/10/01 01:16:42;;;;;;;1999.90;999.90;;;;;;;11.47;100.00;95762.53;5064395;28;20173;-55
2023/10/01 01:19:09;;;;;;;1999.90;999.90;;;;;;;11.44;100.00;95764.09;5063829;28;20169;-52
2023/10/01 01:21:34;;;;;;;1999.90;999.90;;;;;;;11.43;100.00;95761.75;5063753;28;20169;-51
2023/10/01 01:24:03;;;;;;;1999.90;999.90;;;;;;;11.40;100.00;95757.09;5064000;28;20188;-52
2023/10/01 01:26:29;;;;;;;1999.90;999.90;;;;;;;11.38;100.00;95759.44;5063676;28;20196;-54
2023/10/01 01:28:54;;;;;;;1999.90;999.90;;;;;;;11.37;100.00;95763.38;5063717;28;20176;-52
2023/10/01 01:31:26;;;;;;;1999.90;999.90;;;;;;;11.36;100.00;95756.34;5063880;28;20279;-52
2023/10/01 01:33:55;;;;;;;1999.90;999.90;;;;;;;11.32;100.00;95755.56;5064097;28;20169;-54
2023/10/01 01:36:21;;;;;;;1999.90;999.90;;;;;;;11.28;100.00;95760.28;5064103;28;20169;-52
2023/10/01 01:39:26;;;;;;;1999.90;999.90;;;;;;;11.29;100.00;95748.19;5063540;28;20175;-54
2023/10/01 01:41:51;;;;;;;1999.90;999.90;;;;;;;11.27;100.00;95750.53;5063563;28;20168;-53
2023/10/01 01:44:17;;;;;;;1999.90;999.90;;;;;;;11.24;100.00;95748.56;5064235;28;20244;-54
2023/10/01 01:46:49;;;;;;;1999.90;999.90;;;;;;;11.21;100.00;95749.38;5063569;28;20214;-56
2023/10/01 01:49:19;;;;;;;1999.90;999.90;;;;;;;11.21;100.00;95738.44;5064059;28;20168;-54
2023/10/01 01:51:57;;;;;;;1999.90;999.90;;;;;;;11.22;100.00;95742.75;5063462;28;20227;-52
2023/10/01 01:54:31;;;;;;;1999.90;999.90;;;;;;;11.18;100.00;95737.28;5064058;28;20175;-52
2023/10/01 01:56:56;;;;;;;1999.90;999.90;;;;;;;11.15;100.00;95740.03;5063517;28;20166;-55
2023/10/01 01:59:24;;;;;;;1999.90;999.90;;;;;;;11.12;100.00;95740.84;5066194;28;20169;-55
2023/10/01 02:01:51;;;;;;;1999.90;999.90;;;;;;;11.13;100.00;95732.25;5067405;28;20173;-53
2023/10/01 02:04:17;;;;;;;1999.90;999.90;;;;;;;11.13;100.00;95740.44;5067178;28;20250;-54
2023/10/01 02:06:45;;;;;;;1999.90;999.90;;;;;;;11.14;100.00;95738.50;5067879;28;20184;-54
2023/10/01 02:09:19;;;;;;;1999.90;999.90;;;;;;;11.11;100.00;95718.19;5067221;28;20180;-51
2023/10/01 02:11:49;;;;;;;1999.90;999.90;;;;;;;11.12;100.00;95716.22;5067234;28;20177;-54
2023/10/01 02:14:29;;;;;;;1999.90;999.90;;;;;;;11.09;100.00;95708.81;5067167;28;20177;-53
2023/10/01 02:17:02;;;;;;;1999.90;999.90;;;;;;;11.06;100.00;95698.69;5067559;28;20172;-55
2023/10/01 02:19:29;;;;;;;1999.90;999.90;;;;;;;11.03;100.00;95696.78;5067628;28;20172;-55
2023/10/01 02:22:05;;;;;;;1999.90;999.90;;;;;;;11.01;100.00;95685.44;5066988;28;20177;-55
2023/10/01 02:24:44;;;;;;;1999.90;999.90;;;;;;;10.99;100.00;95690.53;5067505;28;20230;-53
2023/10/01 02:27:13;;;;;;;1999.90;999.90;;;;;;;10.97;100.00;95684.69;5067516;28;20172;-55
2023/10/01 02:29:45;;;;;;;1999.90;999.90;;;;;;;10.95;100.00;95665.16;5066945;28;20182;-54
2023/10/01 02:32:14;;;;;;;1999.90;999.90;;;;;;;10.94;100.00;95652.69;5067330;28;20424;-52
2023/10/01 02:34:40;;;;;;;1999.90;999.90;;;;;;;10.94;100.00;95633.56;5066716;28;20189;-53
2023/10/01 02:37:07;;;;;;;1999.90;999.90;;;;;;;10.93;100.00;95621.09;5066778;28;20181;-55
2023/10/01 02:39:32;;;;;;;1999.90;999.90;;;;;;;10.92;100.00;95603.16;5067251;28;20176;-56
2023/10/01 02:44:34;;;;;;;1999.90;999.90;;;;;;;10.87;100.00;95587.16;5067828;28;20200;-55
2023/10/01 02:47:03;;;;;;;1999.90;999.90;;;;;;;10.85;100.00;95573.91;5066540;28;20186;-55
2023/10/01 02:49:32;;;;;;;1999.90;999.90;;;;;;;10.84;100.00;95582.50;5066477;28;20176;-54
2023/10/01 02:51:59;;;;;;;1999.90;999.90;;;;;;;10.85;100.00;95567.69;5066412;28;20193;-52
2023/10/01 02:54:28;;;;;;;1999.90;999.90;;;;;;;10.81;100.00;95566.94;5066468;28;20178;-54
2023/10/01 02:57:11;;;;;;;1999.90;999.90;;;;;;;10.79;100.00;95556.41;5066254;28;20176;-52
2023/10/01 03:00:20;;;;;;;1999.90;999.90;;;;;;;10.79;100.00;95555.59;5066858;28;20211;-53
2023/10/01 03:02:30;;;;;;;1999.90;999.90;;;;;;;10.79;100.00;95552.88;5067240;28;20178;-56
2023/10/01 03:05:00;;;;;;;1999.90;999.90;;;;;;;10.75;100.00;95563.03;5066467;28;20217;-54
2023/10/01 03:07:32;;;;;;;1999.90;999.90;;;;;;;10.72;100.00;95558.38;5066728;28;20201;-53
2023/10/01 03:10:00;;;;;;;1999.90;999.90;;;;;;;10.73;100.00;95559.94;5065329;28;20201;-54
2023/10/01 03:12:34;;;;;;;1999.90;999.90;;;;;;;10.74;100.00;95550.56;5066091;28;20517;-54
2023/10/01 03:15:00;;;;;;;1999.90;999.90;;;;;;;10.72;100.00;95556.44;5066349;28;20186;-52
2023/10/01 03:17:38;;;;;;;1999.90;999.90;;;;;;;10.67;100.00;95564.28;5066403;28;20181;-54
2023/10/01 03:23:10;;;;;;;1999.90;999.90;;;;;;;10.70;100.00;95555.28;5022987;28;20207;-56
2023/10/01 03:25:40;;;;;;;1999.90;999.90;;;;;;;10.69;100.00;95548.25;5066289;28;20217;-55
2023/10/01 03:28:32;;;;;;;1999.90;999.90;;;;;;;10.65;100.00;95547.50;5066633;28;20175;-55
2023/10/01 03:31:06;;;;;;;1999.90;999.90;;;;;;;10.63;100.00;95541.66;5066283;28;20168;-54
2023/10/01 03:33:33;;;;;;;1999.90;999.90;;;;;;;10.66;100.00;95535.38;5066310;28;20234;-55
2023/10/01 03:35:58;;;;;;;1999.90;999.90;;;;;;;10.67;100.00;95542.44;5065869;28;20230;-54
2023/10/01 03:38:24;;;;;;;1999.90;999.90;;;;;;;10.65;100.00;95534.63;5065789;28;20215;-54
2023/10/01 03:41:08;;;;;;;1999.90;999.90;;;;;;;10.63;100.00;95538.94;5066024;28;20183;-55
2023/10/01 03:43:37;;;;;;;1999.90;999.90;;;;;;;10.61;100.00;95536.59;5065541;28;20169;-54
2023/10/01 03:46:26;;;;;;;1999.90;999.90;;;;;;;10.65;100.00;95525.66;5065294;28;20207;-51
2023/10/01 03:48:58;;;;;;;1999.90;999.90;;;;;;;10.62;100.00;95526.44;5065993;28;20178;-54
2023/10/01 03:54:20;;;;;;;1999.90;999.90;;;;;;;10.58;100.00;95526.47;5066392;28;20519;-54
2023/10/01 03:56:56;;;;;;;1999.90;999.90;;;;;;;10.59;100.00;95527.25;5065675;28;20183;-55
2023/10/01 03:59:27;;;;;;;1999.90;999.90;;;;;;;10.57;100.00;95524.16;5065723;28;20180;-53
2023/10/01 04:01:59;;;;;;;1999.90;999.90;;;;;;;10.53;100.00;95534.31;5065036;28;20175;-55
2023/10/01 04:04:37;;;;;;;1999.90;999.90;;;;;;;10.51;100.00;95537.44;5065305;28;20231;-54
2023/10/01 04:07:10;;;;;;;1999.90;999.90;;;;;;;10.49;100.00;95539.03;5065533;28;20183;-53
2023/10/01 04:09:45;;;;;;;1999.90;999.90;;;;;;;10.45;100.00;95549.19;5065042;28;20196;-54
2023/10/01 04:12:28;;;;;;;1999.90;999.90;;;;;;;10.44;100.00;95553.06;5065577;28;20196;-54
2023/10/01 04:15:01;;;;;;;1999.90;999.90;;;;;;;10.40;100.00;95557.78;5065367;28;20171;-51
2023/10/01 04:17:26;;;;;;;1999.90;999.90;;;;;;;10.39;100.00;95551.56;5065380;28;20171;-54
2023/10/01 04:20:00;;;;;;;1999.90;999.90;;;;;;;10.37;100.00;95551.16;5064856;28;20182;-51
2023/10/01 04:22:28;;;;;;;1999.90;999.90;;;;;;;10.34;100.00;95554.69;5065127;28;20164;-54
2023/10/01 04:25:10;;;;;;;1999.90;999.90;;;;;;;10.33;100.00;95552.34;5064976;28;20214;-54
2023/10/01 04:27:45;;;;;;;1999.90;999.90;;;;;;;10.32;100.00;95561.72;5065223;28;20171;-50
2023/10/01 04:30:11;;;;;;;1999.90;999.90;;;;;;;10.33;100.00;95563.25;5065179;28;20197;-53
2023/10/01 04:32:36;;;;;;;1999.90;999.90;;;;;;;10.30;100.00;95569.53;5064625;28;20171;-54
2023/10/01 04:35:14;;;;;;;1999.90;999.90;;;;;;;10.25;100.00;95578.13;5064488;28;20339;-54
2023/10/01 04:37:43;;;;;;;1999.90;999.90;;;;;;;10.23;100.00;95585.94;5065067;28;20170;-55
2023/10/01 04:43:08;;;;;;;1999.90;999.90;;;;;;;10.14;100.00;95594.53;5065376;28;20267;-54
2023/10/01 04:45:36;;;;;;;1999.90;999.90;;;;;;;10.10;100.00;95593.78;5064290;28;20202;-54
2023/10/01 04:48:16;;;;;;;1999.90;999.90;;;;;;;10.12;100.00;95596.13;5064312;28;20170;-55
2023/10/01 04:50:44;;;;;;;1999.90;999.90;;;;;;;10.13;100.00;95588.28;5064232;28;20201;-54
2023/10/01 04:53:13;;;;;;;1999.90;999.90;;;;;;;10.13;100.00;95581.28;5064178;28;20214;-54
2023/10/01 04:55:41;;;;;;;1999.90;999.90;;;;;;;10.14;100.00;95576.19;5064124;28;20247;-54
2023/10/01 04:58:14;;;;;;;1999.90;999.90;;;;;;;10.13;100.00;95584.03;5063999;28;20194;-54
2023/10/01 05:00:46;;;;;;;1999.90;999.90;;;;;;;10.15;100.00;95574.25;5064111;28;20252;-54
2023/10/01 05:03:15;;;;;;;1999.90;999.90;;;;;;;10.16;100.00;95580.50;5064512;28;20181;-55
2023/10/01 05:05:42;;;;;;;1999.90;999.90;;;;;;;10.16;100.00;95575.06;5063666;28;20648;-54
2023/10/01 05:08:12;;;;;;;1999.90;999.90;;;;;;;10.16;100.00;95580.50;5064008;28;20202;-54
2023/10/01 05:10:51;;;;;;;1999.90;999.90;;;;;;;10.13;100.00;95588.28;5064456;28;20176;-56
2023/10/01 05:13:22;;;;;;;1999.90;999.90;;;;;;;10.13;100.00;95596.47;5064489;28;20198;-52
2023/10/01 05:15:57;;;;;;;1999.90;999.90;;;;;;;10.14;100.00;95598.03;5063808;28;20176;-52
2023/10/01 05:18:26;;;;;;;1999.90;999.90;;;;;;;10.14;100.00;95606.22;5064390;28;20238;-53
2023/10/01 05:20:58;;;;;;;1999.90;999.90;;;;;;;10.17;100.00;95614.81;5063797;28;20197;-53
2023/10/01 05:23:27;;;;;;;1999.90;999.90;;;;;;;10.23;100.00;95618.69;5064513;28;20184;-52
2023/10/01 05:25:56;;;;;;;1999.90;999.90;;;;;;;10.31;100.00;95614.75;5063562;28;20227;-53
2023/10/01 05:28:36;;;;;;;1999.90;999.90;;;;;;;10.41;100.00;95624.88;5064197;28;20172;-52
2023/10/01 05:31:06;;;;;;;1999.90;999.90;;;;;;;10.49;100.00;95631.84;5064201;28;20167;-55
2023/10/01 05:33:38;;;;;;;1999.90;999.90;;;;;;;10.63;100.00;95631.78;5063519;28;20173;-54
2023/10/01 05:36:05;;;;;;;1999.90;999.90;;;;;;;10.76;100.00;95641.06;5064044;28;20217;-55
2023/10/01 05:38:35;;;;;;;1999.90;999.90;;;;;;;10.90;100.00;95651.94;5063648;28;20179;-53
2023/10/01 05:41:04;;;;;;;1999.90;999.90;;;;;;;11.22;100.00;95674.41;5063461;28;20200;-54
2023/10/01 05:43:43;;;;;;;1999.90;999.90;;;;;;;11.60;100.00;95678.81;5063291;28;20248;-54
2023/10/01 05:46:08;;;;;;;1999.90;999.90;;;;;;;12.20;100.00;95720.19;5063941;28;20246;-52
2023/10/01 05:48:41;;;;;;;1999.90;999.90;;;;;;;12.70;100.00;95781.50;5063558;28;20211;-55
2023/10/01 05:51:14;;;;;;;1999.90;999.90;;;;;;;13.01;100.00;95870.91;5063970;28;20176;-54
2023/10/01 05:53:40;;;;;;;1999.90;999.90;;;;;;;13.26;100.00;95931.78;5063795;28;20165;-55
2023/10/01 05:56:10;;;;;;;1999.90;999.90;;;;;;;13.35;100.00;95995.16;5063102;28;20220;-54
2023/10/01 05:58:37;;;;;;;1999.90;999.90;;;;;;;13.74;100.00;96044.97;5063219;28;20190;-56
2023/10/01 06:01:05;;;;;;;1999.90;999.90;;;;;;;14.29;100.00;96078.56;5063863;28;20176;-54
2023/10/01 06:03:33;;;;;;;1999.90;999.90;;;;;;;14.66;100.00;96130.72;5063913;28;20223;-54
2023/10/01 06:05:59;;;;;;;1999.90;999.90;;;;;;;14.91;100.00;96164.22;5063245;28;20218;-53
2023/10/01 06:08:26;;;;;;;1999.90;999.90;;;;;;;15.23;100.00;96189.31;5063274;28;20174;-52
2023/10/01 06:11:05;;;;;;;1999.90;999.90;;;;;;;15.43;100.00;96209.53;5063451;28;20184;-53
2023/10/01 06:13:51;;;;;;;1999.90;999.90;;;;;;;15.74;100.00;96224.06;5063790;28;20170;-53
2023/10/01 06:16:25;;;;;;;1999.90;999.90;;;;;;;16.49;100.00;96227.97;5064121;28;20180;-53
2023/10/01 06:18:59;;;;;;;1999.90;999.90;;;;;;;16.93;100.00;96232.28;5063919;28;20195;-54
2023/10/01 06:21:26;;;;;;;1999.90;999.90;;;;;;;17.31;100.00;96247.28;5063570;28;20172;-53
2023/10/01 06:23:53;;;;;;;1999.90;999.90;;;;;;;17.65;100.00;96247.78;5063334;28;20170;-54
2023/10/01 06:26:20;;;;;;;1999.90;999.90;;;;;;;18.06;100.00;96248.03;5063078;28;20212;-57
2023/10/01 06:28:47;;;;;;;1999.90;999.90;;;;;;;18.45;100.00;96264.50;5063094;28;20170;-54
2023/10/01 06:31:16;;;;;;;1999.90;999.90;;;;;;;18.75;100.00;96264.91;5062986;28;20261;-53
2023/10/01 06:33:44;;;;;;;1999.90;999.90;;;;;;;19.07;100.00;96272.38;5063593;28;20212;-54
2023/10/01 06:36:15;;;;;;;1999.90;999.90;;;;;;;19.44;100.00;96269.78;5063442;28;20174;-54
2023/10/01 06:38:47;;;;;;;1999.90;999.90;;;;;;;19.95;100.00;96275.44;5063211;28;20162;-55
2023/10/01 06:41:18;;;;;;;1999.90;999.90;;;;;;;20.33;100.00;96279.78;5063044;28;20169;-52
2023/10/01 06:43:48;;;;;;;1999.90;999.90;;;;;;;20.67;100.00;96277.09;5063509;28;20207;-56
2023/10/01 06:46:19;;;;;;;1999.90;999.90;;;;;;;21.10;100.00;96277.22;5065831;28;20247;-55
2023/10/01 06:48:51;;;;;;;1999.90;999.90;;;;;;;21.48;100.00;96280.63;5067042;28;20169;-52
2023/10/01 06:51:25;;;;;;;1999.90;999.90;;;;;;;21.65;100.00;96279.19;5066419;28;20174;-54
2023/10/01 06:54:00;;;;;;;1999.90;999.90;;;;;;;21.64;100.00;96280.41;5066942;28;20170;-55
2023/10/01 06:56:29;;;;;;;1999.90;999.90;;;;;;;21.87;100.00;96280.00;5066295;28;20181;-55
2023/10/01 06:59:28;;;;;;;1999.90;999.90;;;;;;;21.61;100.00;96284.13;5066131;28;20182;-56
2023/10/01 07:01:47;;;;;;;1999.90;999.90;;;;;;;21.84;100.00;96278.09;5065294;28;20174;-56
2023/10/01 07:04:20;;;;;;;1999.90;999.90;;;;;;;22.02;100.00;96286.56;5066181;28;20166;-54
2023/10/01 07:06:50;;;;;;;1999.90;999.90;;;;;;;22.17;100.00;96293.13;5066650;28;20174;-55
2023/10/01 07:09:34;;;;;;;1999.90;999.90;;;;;;;22.96;100.00;96291.56;5066583;28;20173;-56
2023/10/01 07:12:01;;;;;;;1999.90;999.90;;;;;;;23.74;100.00;96289.75;5066455;28;20170;-54
2023/10/01 07:14:43;;;;;;;1999.90;999.90;;;;;;;24.36;100.00;96302.03;5066534;28;20166;-56
2023/10/01 07:17:18;;;;;;;1999.90;999.90;;;;;;;24.75;100.00;96300.94;5066388;28;20296;-54
2023/10/01 07:19:59;;;;;;;1999.90;999.90;;;;;;;25.30;100.00;96299.38;5066398;28;20169;-56
2023/10/01 07:22:31;;;;;;;1999.90;999.90;;;;;;;25.55;100.00;96301.69;5066386;28;20193;-55
2023/10/01 07:24:57;;;;;;;1999.90;999.90;;;;;;;26.16;100.00;96300.03;5065741;28;20266;-56
2023/10/01 07:27:23;;;;;;;1999.90;999.90;;;;;;;26.32;100.00;96296.75;5065826;28;20188;-56
2023/10/01 07:29:54;;;;;;;1999.90;999.90;;;;;;;26.76;100.00;96303.06;5066271;28;20166;-56
2023/10/01 07:32:20;;;;;;;1999.90;999.90;;;;;;;27.18;100.00;96306.25;5066151;28;20189;-56
2023/10/01 07:34:48;;;;;;;1999.90;999.90;;;;;;;27.35;100.00;96299.63;5065557;28;20165;-56
2023/10/01 07:37:26;;;;;;;1999.90;999.90;;;;;;;27.75;100.00;96299.59;5065957;28;20177;-56
2023/10/01 07:39:55;;;;;;;1999.90;999.90;;;;;;;27.39;100.00;96311.41;5066076;28;20166;-56
2023/10/01 07:42:23;;;;;;;1999.90;999.90;;;;;;;28.33;100.00;96303.25;5065973;28;20170;-55
2023/10/01 07:44:49;;;;;;;1999.90;999.90;;;;;;;28.97;100.00;96295.06;5065754;28;20201;-56
2023/10/01 07:47:28;;;;;;;1999.90;999.90;;;;;;;29.23;100.00;96307.03;5065441;28;20199;-56
2023/10/01 07:50:08;;;;;;;1999.90;999.90;;;;;;;29.32;93.60;96309.66;5065820;28;20162;-56
2023/10/01 07:52:36;;;;;;;1999.90;999.90;;;;;;;28.38;100.00;96312.50;5065877;28;20177;-54
2023/10/01 07:55:29;;;;;;;1999.90;999.90;;;;;;;29.10;98.28;96315.16;5065170;28;20170;-55
2023/10/01 07:57:51;;;;;;;1999.90;999.90;;;;;;;29.67;95.90;96315.69;5065616;28;20189;-58
2023/10/01 08:00:26;;;;;;;1999.90;999.90;;;;;;;29.60;92.58;96313.41;5065160;28;20173;-56
2023/10/01 08:05:38;;;;;;;1999.90;999.90;;;;;;;29.29;95.07;96324.72;5065963;28;20231;-55
2023/10/01 08:08:06;;;;;;;1999.90;999.90;;;;;;;28.66;100.00;96320.44;5064984;28;20216;-57
2023/10/01 08:10:37;;;;;;;1999.90;999.90;;;;;;;29.19;97.74;96320.56;5064890;28;20170;-57
2023/10/01 08:13:05;;;;;;;1999.90;999.90;;;;;;;28.90;98.55;96321.63;5065084;28;20168;-56
2023/10/01 08:15:42;;;;;;;1999.90;999.90;;;;;;;29.75;95.75;96319.59;5064872;28;20166;-57
2023/10/01 08:18:34;;;;;;;1999.90;999.90;;;;;;;29.65;90.32;96315.44;5065373;28;20216;-57
2023/10/01 08:21:02;;;;;;;1999.90;999.90;;;;;;;29.87;89.88;96323.97;5064739;28;20192;-57
2023/10/01 08:23:30;;;;;;;1999.90;999.90;;;;;;;30.34;84.86;96314.63;5065206;28;20173;-57
2023/10/01 08:25:56;;;;;;;1999.90;999.90;;;;;;;31.63;78.79;96309.88;5065019;28;20194;-57
2023/10/01 08:30:49;;;;;;;1999.90;999.90;;;;;;;31.32;72.62;96318.72;5065698;28;20174;-58
2023/10/01 08:33:18;;;;;;;1999.90;999.90;;;;;;;30.25;80.80;96312.03;5064502;28;20217;-57
2023/10/01 08:35:56;;;;;;;1999.90;999.90;;;;;;;30.16;83.96;96312.28;5064174;28;20162;-57
2023/10/01 08:38:23;;;;;;;1999.90;999.90;;;;;;;30.32;84.69;96305.91;5065206;28;20192;-58
2023/10/01 08:40:52;;;;;;;1999.90;999.90;;;;;;;31.32;77.91;96307.44;5064489;28;20227;-57
2023/10/01 08:43:21;;;;;;;1999.90;999.90;;;;;;;30.58;78.41;96309.25;5064866;28;20181;-57
2023/10/01 08:45:49;;;;;;;1999.90;999.90;;;;;;;31.24;76.38;96305.63;5064376;28;20261;-57
2023/10/01 08:48:17;;;;;;;1999.90;999.90;;;;;;;30.88;79.07;96302.59;5064202;28;20194;-57
2023/10/01 08:50:45;;;;;;;1999.90;999.90;;;;;;;31.16;76.94;96304.63;5064223;28;20235;-56
2023/10/01 08:53:12;;;;;;;1999.90;999.90;;;;;;;30.73;77.81;96306.97;5064634;28;20192;-57
2023/10/01 08:58:15;;;;;;;1999.90;999.90;;;;;;;29.64;80.08;96330.81;5065068;28;20181;-57
2023/10/01 09:01:10;;;;;;;1999.90;999.90;;;;;;;29.82;79.88;96330.38;5063851;28;20212;-54
2023/10/01 09:03:36;;;;;;;1999.90;999.90;;;;;;;30.90;73.69;96319.00;5064366;28;20177;-58
2023/10/01 09:06:03;;;;;;;1999.90;999.90;;;;;;;31.17;68.85;96323.84;5063533;28;20232;-56
2023/10/01 09:08:42;;;;;;;1999.90;999.90;;;;;;;31.27;65.37;96327.97;5063615;28;20170;-57
2023/10/01 09:11:12;;;;;;;1999.90;999.90;;;;;;;30.42;68.97;96319.25;5064146;28;20212;-57
2023/10/01 09:14:14;;;;;;;1999.90;999.90;;;;;;;30.77;65.79;96321.59;5063728;28;20212;-57
2023/10/01 09:16:42;;;;;;;1999.90;999.90;;;;;;;31.42;61.69;96317.13;5064012;28;20177;-58
2023/10/01 09:21:55;;;;;;;1999.90;999.90;;;;;;;29.99;59.42;96331.19;5064395;28;20177;-56
2023/10/01 09:24:38;;;;;;;1999.90;999.90;;;;;;;30.33;54.33;96330.00;5063630;28;20166;-57
2023/10/01 09:27:18;;;;;;;1999.90;999.90;;;;;;;29.74;57.14;96323.66;5064134;28;20169;-56
2023/10/01 09:29:45;;;;;;;1999.90;999.90;;;;;;;29.64;61.99;96330.81;5064280;28;20165;-58
2023/10/01 09:32:11;;;;;;;1999.90;999.90;;;;;;;28.59;66.93;96326.50;5063606;28;20169;-57
2023/10/01 09:34:46;;;;;;;1999.90;999.90;;;;;;;28.88;68.17;96323.41;5064034;28;20178;-53
2023/10/01 09:37:35;;;;;;;1999.90;999.90;;;;;;;29.40;68.44;96327.59;5064079;28;20165;-56
2023/10/01 09:40:05;;;;;;;1999.90;999.90;;;;;;;29.70;64.51;96325.97;5063541;28;20233;-55
2023/10/01 09:42:44;;;;;;;1999.90;999.90;;;;;;;30.26;59.70;96331.28;5064097;28;20241;-56
2023/10/01 09:45:26;;;;;;;1999.90;999.90;;;;;;;29.49;63.19;96330.97;5063879;28;20193;-56
2023/10/01 09:48:04;;;;;;;1999.90;999.90;;;;;;;29.21;66.29;96326.47;5063995;28;20229;-57
2023/10/01 09:50:41;;;;;;;1999.90;999.90;;;;;;;28.76;63.87;96330.25;5063986;28;20157;-57
2023/10/01 09:53:14;;;;;;;1999.90;999.90;;;;;;;29.56;68.48;96329.72;5063401;28;20162;-55
2023/10/01 09:55:47;;;;;;;1999.90;999.90;;;;;;;29.21;71.03;96326.47;5063230;28;20169;-56
2023/10/01 09:58:25;;;;;;;1999.90;999.90;;;;;;;30.15;67.97;96324.84;5063240;28;20192;-57
2023/10/01 10:01:01;;;;;;;1999.90;999.90;;;;;;;30.45;63.57;96332.31;5063843;28;20166;-57
2023/10/01 10:03:36;;;;;;;1999.90;999.90;;;;;;;30.90;62.75;96321.84;5064088;28;20162;-57
2023/10/01 10:06:09;;;;;;;1999.90;999.90;;;;;;;30.41;65.01;96325.41;5062670;28;20221;-55
2023/10/01 10:08:39;;;;;;;1999.90;999.90;;;;;;;29.84;67.87;96316.53;5063305;28;20177;-57
2023/10/01 10:11:24;;;;;;;1999.90;999.90;;;;;;;31.24;61.85;96309.19;5063683;28;20170;-56
2023/10/01 10:13:50;;;;;;;1999.90;999.90;;;;;;;31.24;59.81;96323.31;5063636;28;20166;-57
2023/10/01 10:16:35;;;;;;;1999.90;999.90;;;;;;;31.64;59.51;96308.56;5062987;28;20177;-57
2023/10/01 10:19:05;;;;;;;1999.90;999.90;;;;;;;30.97;61.59;96315.66;5064290;28;20170;-56
2023/10/01 10:24:29;;;;;;;1999.90;999.90;;;;;;;30.87;64.50;96322.84;5067530;28;20150;-57
2023/10/01 10:26:58;;;;;;;1999.90;999.90;;;;;;;29.41;68.81;96315.81;5067362;28;20192;-56
2023/10/01 10:29:24;;;;;;;1999.90;999.90;;;;;;;28.63;75.01;96321.44;5066897;28;20170;-57
2023/10/01 10:32:09;;;;;;;1999.90;999.90;;;;;;;29.27;70.59;96310.38;5067336;28;20173;-56
2023/10/01 10:34:36;;;;;;;1999.90;999.90;;;;;;;29.75;72.29;96311.16;5067062;28;20174;-55
2023/10/01 10:37:06;;;;;;;1999.90;999.90;;;;;;;29.39;70.24;96320.44;5067180;28;20174;-54
2023/10/01 10:39:48;;;;;;;1999.90;999.90;;;;;;;28.35;75.32;96312.72;5066635;28;20170;-56
2023/10/01 10:42:33;;;;;;;1999.90;999.90;;;;;;;28.87;74.11;96302.94;5066648;28;20174;-55
2023/10/01 10:45:20;;;;;;;1999.90;999.90;;;;;;;29.26;70.91;96312.44;5066777;28;20308;-56
2023/10/01 10:48:03;;;;;;;1999.90;999.90;;;;;;;29.29;72.30;96302.19;5067009;28;20200;-58
2023/10/01 10:50:44;;;;;;;1999.90;999.90;;;;;;;28.52;75.76;96304.47;5067207;28;20158;-56
2023/10/01 10:53:17;;;;;;;1999.90;999.90;;;;;;;28.89;75.81;96296.81;5067160;28;20220;-56
2023/10/01 10:56:06;;;;;;;1999.90;999.90;;;;;;;28.64;75.83;96295.63;5067183;28;20158;-55
2023/10/01 10:58:39;;;;;;;1999.90;999.90;;;;;;;28.81;75.03;96298.56;5065969;28;20194;-55
2023/10/01 11:01:15;;;;;;;1999.90;999.90;;;;;;;28.20;79.81;96293.19;5066779;28;20158;-55
2023/10/01 11:03:59;;;;;;;1999.90;999.90;;;;;;;28.28;76.98;96297.09;5066767;28;20228;-55
2023/10/01 11:06:30;;;;;;;1999.90;999.90;;;;;;;28.42;80.89;96289.78;5066241;28;20217;-56
2023/10/01 11:09:03;;;;;;;1999.90;999.90;;;;;;;27.80;85.11;96290.47;5066097;28;20241;-57
2023/10/01 11:11:39;;;;;;;1999.90;999.90;;;;;;;27.29;89.56;96287.56;5066819;28;20224;-55
2023/10/01 11:14:11;;;;;;;1999.90;999.90;;;;;;;26.25;99.52;96278.31;5066558;28;20162;-55
2023/10/01 11:16:40;;;;;;;1999.90;999.90;;;;;;;26.42;100.00;96276.56;5066360;28;20170;-56
2023/10/01 11:19:15;;;;;;;1999.90;999.90;;;;;;;26.11;100.00;96273.47;5066322;28;20174;-56
2023/10/01 11:21:54;;;;;;;1999.90;999.90;;;;;;;25.82;100.00;96267.09;5066410;28;20184;-56
2023/10/01 11:24:31;;;;;;;1999.90;999.90;;;;;;;25.35;100.00;96270.78;5066600;28;20188;-55
2023/10/01 11:27:25;;;;;;;1999.90;999.90;;;;;;;24.87;100.00;96269.97;5065929;28;20166;-53
2023/10/01 11:29:58;;;;;;;1999.90;999.90;;;;;;;24.74;100.00;96269.44;5066274;28;20193;-56
2023/10/01 11:36:06;;;;;;;1999.90;999.90;;;;;;;24.31;100.00;96260.75;5066292;28;20174;-55
2023/10/01 11:38:33;;;;;;;1999.90;999.90;;;;;;;24.24;100.00;96264.69;5065487;28;20166;-57